Time;durP1;ratioP1;P1;durP2;ratioP2;P2;SDS_P1;SDS_P2;PMS_P1;PMS_P2;Temp;Humidity;BMP_temperature;BMP_pressure;BME280_temperature;BME280_humidity;BME280_pressure;Samples;Min_cycle;Max_cycle;Signal;HPM_P1;HPM_P2
2021/04/09 00:00:30;;;;;;;4.95;3.00;;;;;;;1.95;71.99;98696.52;1652415;86;21175;-66
2021/04/09 00:03:00;;;;;;;5.80;3.30;;;;;;;1.95;72.88;98699.08;1652268;86;21610;-66
2021/04/09 00:05:30;;;;;;;3.87;2.60;;;;;;;1.94;72.37;98694.05;1652223;85;21227;-66
2021/04/09 00:07:58;;;;;;;7.17;2.83;;;;;;;1.95;72.48;98702.09;1652405;86;21212;-66
2021/04/09 00:10:29;;;;;;;2.67;2.30;;;;;;;1.96;72.86;98702.47;1652168;86;21287;-67
2021/04/09 00:12:57;;;;;;;4.55;2.80;;;;;;;1.94;72.77;98710.25;1652232;85;21601;-66
2021/04/09 00:15:26;;;;;;;5.47;2.17;;;;;;;1.97;72.44;98715.67;1652469;85;21172;-67
2021/04/09 00:17:54;;;;;;;4.37;2.62;;;;;;;2.02;72.26;98718.86;1652223;86;21188;-66
2021/04/09 00:20:25;;;;;;;3.22;2.02;;;;;;;2.04;71.67;98719.16;1681119;84;21220;-66
2021/04/09 00:22:54;;;;;;;6.70;3.15;;;;;;;2.04;72.97;98720.87;1693991;84;21625;-66
2021/04/09 00:25:24;;;;;;;5.12;2.67;;;;;;;2.01;72.97;98723.14;1694122;84;21172;-66
2021/04/09 00:27:52;;;;;;;2.70;1.55;;;;;;;1.95;73.65;98719.56;1693945;84;21189;-66
2021/04/09 00:30:26;;;;;;;8.80;2.83;;;;;;;1.93;73.62;98727.79;1694067;84;21172;-66
2021/04/09 00:32:54;;;;;;;5.67;2.72;;;;;;;1.92;73.64;98728.69;1694072;84;21218;-66
2021/04/09 00:35:23;;;;;;;9.03;2.87;;;;;;;1.95;73.42;98731.09;1694002;84;21177;-67
2021/04/09 00:37:52;;;;;;;4.90;3.22;;;;;;;1.99;72.97;98731.34;1693946;84;21589;-67
2021/04/09 00:40:21;;;;;;;2.45;2.08;;;;;;;2.02;72.77;98729.10;1694166;84;21183;-66
2021/04/09 00:42:50;;;;;;;3.17;1.82;;;;;;;2.07;72.62;98730.53;1693879;84;21172;-67
2021/04/09 00:45:19;;;;;;;4.12;3.25;;;;;;;2.11;72.10;98730.77;1694166;84;21177;-65
2021/04/09 00:47:47;;;;;;;3.02;2.10;;;;;;;2.12;72.14;98735.45;1693926;84;21188;-65
2021/04/09 00:50:18;;;;;;;3.95;2.42;;;;;;;2.15;72.27;98739.14;1693969;84;21141;-62
2021/04/09 00:52:48;;;;;;;5.28;3.00;;;;;;;2.17;71.93;98743.31;1694197;84;21544;-64
2021/04/09 00:55:18;;;;;;;4.15;2.75;;;;;;;2.18;72.37;98746.70;1694133;84;21224;-64
2021/04/09 00:57:48;;;;;;;5.50;3.37;;;;;;;2.20;71.92;98749.56;1694242;84;21558;-62
2021/04/09 01:00:19;;;;;;;5.28;2.30;;;;;;;2.22;71.80;98754.16;1694282;84;21168;-66
2021/04/09 01:02:47;;;;;;;6.60;3.22;;;;;;;2.24;71.26;98757.49;1694110;84;21692;-67
2021/04/09 01:05:38;;;;;;;3.58;2.58;;;;;;;2.25;71.30;98760.89;1694190;84;21149;-64
2021/04/09 01:08:07;;;;;;;3.60;2.22;;;;;;;2.25;71.26;98752.75;1640104;87;21255;-64
2021/04/09 01:10:37;;;;;;;2.98;2.37;;;;;;;2.23;70.69;98754.55;1612896;89;21148;-63
2021/04/09 01:13:05;;;;;;;3.75;2.42;;;;;;;2.22;70.46;98766.97;1612709;89;21191;-63
2021/04/09 01:15:33;;;;;;;3.05;2.15;;;;;;;2.22;70.28;98758.00;1612785;88;21204;-63
2021/04/09 01:21:29;;;;;;;4.60;2.22;;;;;;;2.21;70.44;98763.22;1638491;87;21608;-63
2021/04/09 01:24:30;;;;;;;3.42;1.92;;;;;;;2.20;70.18;98763.66;1633450;88;21593;-64
2021/04/09 01:27:12;;;;;;;3.20;2.50;;;;;;;2.12;71.55;98763.18;1651028;86;21144;-65
2021/04/09 01:30:20;;;;;;;4.70;2.33;;;;;;;2.04;72.29;98763.15;1668609;86;21188;-67
2021/04/09 01:32:50;;;;;;;2.25;1.98;;;;;;;2.03;71.62;98764.88;1669119;86;21549;-67
2021/04/09 01:35:21;;;;;;;2.85;1.45;;;;;;;2.05;71.86;98771.22;1669008;86;21220;-65
2021/04/09 01:38:07;;;;;;;2.47;1.67;;;;;;;2.08;71.07;98773.19;1668892;86;21576;-65
2021/04/09 01:40:45;;;;;;;5.83;2.87;;;;;;;2.10;70.95;98773.94;1669223;86;21242;-66
2021/04/09 01:43:20;;;;;;;1.85;1.27;;;;;;;2.13;70.57;98771.26;1668882;86;21632;-65
2021/04/09 01:45:50;;;;;;;2.45;1.37;;;;;;;2.15;70.83;98766.87;1668976;86;21191;-65
2021/04/09 01:48:21;;;;;;;4.60;2.27;;;;;;;2.18;70.12;98761.60;1668979;86;21204;-65
2021/04/09 01:50:51;;;;;;;3.50;2.45;;;;;;;2.21;70.03;98764.05;1668793;86;21211;-65
2021/04/09 01:53:22;;;;;;;6.08;2.33;;;;;;;2.23;70.09;98767.80;1669220;86;21186;-65
2021/04/09 01:55:53;;;;;;;3.65;2.25;;;;;;;2.24;69.67;98769.02;1669435;86;21199;-65
2021/04/09 01:58:23;;;;;;;2.40;1.95;;;;;;;2.25;69.50;98769.86;1669169;86;21233;-65
2021/04/09 02:00:51;;;;;;;3.22;2.02;;;;;;;2.25;69.53;98769.86;1669017;86;21164;-65
2021/04/09 02:03:27;;;;;;;6.85;2.20;;;;;;;2.24;69.82;98774.15;1668908;86;21341;-66
2021/04/09 02:05:57;;;;;;;3.05;1.42;;;;;;;2.26;70.01;98777.91;1669186;86;21231;-66
2021/04/09 02:08:25;;;;;;;3.02;1.40;;;;;;;2.27;69.45;98777.01;1669240;86;21606;-66
2021/04/09 02:10:57;;;;;;;2.67;2.20;;;;;;;2.30;69.47;98779.42;1669342;86;21156;-66
2021/04/09 02:13:28;;;;;;;7.22;2.62;;;;;;;2.30;69.40;98781.53;1669026;86;21258;-66
2021/04/09 02:15:57;;;;;;;5.85;1.65;;;;;;;2.30;68.73;98778.97;1668986;86;21313;-65
2021/04/09 02:18:27;;;;;;;4.47;2.45;;;;;;;2.31;68.55;98784.94;1669021;86;21190;-66
2021/04/09 02:21:01;;;;;;;3.98;2.58;;;;;;;2.30;69.59;98783.27;1647937;86;21258;-65
2021/04/09 02:23:30;;;;;;;7.25;2.87;;;;;;;2.30;69.58;98793.07;1637144;88;21180;-66
2021/04/09 02:25:59;;;;;;;6.12;2.92;;;;;;;2.29;69.80;98786.75;1633669;88;21157;-65
2021/04/09 02:28:28;;;;;;;3.77;2.33;;;;;;;2.29;69.79;98795.28;1633791;88;21621;-70
2021/04/09 02:31:05;;;;;;;3.83;2.22;;;;;;;2.28;70.24;98791.49;1617146;88;21578;-66
2021/04/09 02:33:35;;;;;;;2.80;2.10;;;;;;;2.27;70.84;98796.23;1633466;88;21192;-67
2021/04/09 02:36:19;;;;;;;3.67;2.47;;;;;;;2.26;70.03;98795.39;1633616;87;21567;-67
2021/04/09 02:38:52;;;;;;;3.67;2.70;;;;;;;2.27;69.30;98798.34;1633658;88;21172;-67
2021/04/09 02:41:22;;;;;;;3.17;2.55;;;;;;;2.24;70.60;98797.21;1633899;88;21194;-64
2021/04/09 02:43:51;;;;;;;3.27;2.12;;;;;;;2.23;70.25;98798.11;1633812;88;21209;-62
2021/04/09 02:46:45;;;;;;;5.30;2.52;;;;;;;2.20;70.52;98799.53;1633594;88;21175;-62
2021/04/09 02:49:48;;;;;;;2.65;2.08;;;;;;;2.21;70.23;98795.25;1819869;79;22963;-62
2021/04/09 02:52:22;;;;;;;4.22;2.80;;;;;;;2.10;72.30;98803.87;1793027;80;21310;-63
2021/04/09 02:54:53;;;;;;;3.62;2.02;;;;;;;2.07;70.75;98804.83;1758135;81;21593;-64
2021/04/09 02:57:24;;;;;;;4.25;2.77;;;;;;;2.06;71.01;98800.62;1728049;83;21173;-64
2021/04/09 02:59:58;;;;;;;7.35;3.02;;;;;;;2.05;71.13;98802.80;1728048;83;21349;-66
2021/04/09 03:02:27;;;;;;;5.92;3.05;;;;;;;2.05;71.35;98808.38;1728055;82;21159;-67
2021/04/09 03:04:57;;;;;;;3.85;2.22;;;;;;;2.04;71.18;98799.84;1728149;83;21160;-67
2021/04/09 03:07:26;;;;;;;4.90;2.90;;;;;;;2.00;72.92;98809.02;1728205;83;21169;-66
2021/04/09 03:09:54;;;;;;;4.72;2.45;;;;;;;1.97;73.62;98812.56;1728194;83;21219;-66
2021/04/09 03:12:23;;;;;;;4.10;3.20;;;;;;;1.99;72.02;98808.19;1726770;83;21183;-64
2021/04/09 03:14:54;;;;;;;6.75;3.10;;;;;;;2.04;71.84;98814.39;1728362;83;21172;-64
2021/04/09 03:20:22;;;;;;;3.75;2.27;;;;;;;2.07;72.05;98817.64;1664539;85;21183;-67
2021/04/09 03:22:53;;;;;;;4.85;2.67;;;;;;;2.04;73.50;98816.95;1638869;85;21282;-66
2021/04/09 03:25:21;;;;;;;8.28;4.20;;;;;;;2.02;73.56;98822.61;1665288;85;21148;-67
2021/04/09 03:27:52;;;;;;;7.00;3.67;;;;;;;2.03;72.59;98826.36;1665136;85;21232;-67
2021/04/09 03:30:22;;;;;;;7.42;3.20;;;;;;;2.02;72.93;98820.88;1665186;85;21192;-64
2021/04/09 03:32:52;;;;;;;6.03;3.37;;;;;;;1.97;73.39;98824.53;1665151;85;21212;-64
2021/04/09 03:35:20;;;;;;;4.92;2.72;;;;;;;1.90;73.11;98823.54;1664833;85;21659;-63
2021/04/09 03:37:49;;;;;;;3.50;2.20;;;;;;;1.85;72.76;98833.14;1664928;85;21176;-64
2021/04/09 03:40:18;;;;;;;4.05;3.02;;;;;;;1.80;72.60;98835.07;1664911;85;21628;-64
2021/04/09 03:42:47;;;;;;;2.37;1.40;;;;;;;1.78;72.14;98838.61;1665100;85;21203;-67
2021/04/09 03:45:16;;;;;;;2.77;1.92;;;;;;;1.77;71.96;98840.78;1665316;85;21175;-64
2021/04/09 03:47:44;;;;;;;4.95;3.05;;;;;;;1.75;70.72;98845.95;1665060;85;21580;-64
2021/04/09 03:50:36;;;;;;;5.42;4.20;;;;;;;1.73;71.16;98849.48;1665276;85;21155;-64
2021/04/09 03:53:04;;;;;;;3.42;2.62;;;;;;;1.70;73.75;98849.63;1641237;86;21188;-64
2021/04/09 03:55:33;;;;;;;2.35;1.57;;;;;;;1.66;72.73;98853.22;1654167;85;21207;-66
2021/04/09 03:58:01;;;;;;;4.58;2.72;;;;;;;1.64;71.44;98857.55;1639594;86;21573;-65
2021/04/09 04:00:31;;;;;;;3.08;2.47;;;;;;;1.60;70.64;98856.02;1653723;85;21235;-65
2021/04/09 04:02:59;;;;;;;6.47;3.27;;;;;;;1.57;70.56;98857.00;1639201;86;21172;-62
2021/04/09 04:05:27;;;;;;;3.98;3.05;;;;;;;1.55;70.71;98856.24;1653437;86;21215;-66
2021/04/09 04:07:55;;;;;;;3.77;3.15;;;;;;;1.52;71.22;98857.63;1639136;86;21152;-62
2021/04/09 04:10:24;;;;;;;7.28;4.53;;;;;;;1.49;70.94;98858.21;1653440;86;21584;-64
2021/04/09 04:12:52;;;;;;;4.92;3.33;;;;;;;1.46;71.32;98858.34;1639163;86;21187;-65
2021/04/09 04:15:20;;;;;;;5.90;3.37;;;;;;;1.40;72.43;98856.42;1653455;86;21609;-64
2021/04/09 04:17:48;;;;;;;4.97;2.90;;;;;;;1.37;73.45;98867.23;1667552;84;21204;-64
2021/04/09 04:20:40;;;;;;;5.20;3.40;;;;;;;1.34;73.20;98864.81;1653732;85;21170;-63
2021/04/09 04:23:20;;;;;;;4.80;4.30;;;;;;;1.34;73.57;98864.81;1652210;85;21309;-63
2021/04/09 04:25:48;;;;;;;5.17;3.47;;;;;;;1.28;74.40;98876.59;1669143;85;21456;-63
2021/04/09 04:28:17;;;;;;;4.40;3.75;;;;;;;1.19;75.02;98873.95;1676275;84;21139;-63
2021/04/09 04:30:52;;;;;;;3.35;2.20;;;;;;;1.15;75.66;98870.30;1676266;83;21178;-64
2021/04/09 04:33:22;;;;;;;;;;;;;;;1.12;75.37;98873.83;1678011;85;21207;-65
2021/04/09 04:35:52;;;;;;;5.22;3.05;;;;;;;1.15;74.94;98876.25;1674863;84;20416;-64
2021/04/09 04:38:21;;;;;;;3.98;3.08;;;;;;;1.20;74.72;98880.74;1674784;84;21175;-65
2021/04/09 04:40:50;;;;;;;4.83;2.85;;;;;;;1.27;74.33;98887.27;1674987;84;21179;-63
2021/04/09 04:43:20;;;;;;;7.15;3.00;;;;;;;1.33;74.39;98884.89;1674854;84;21169;-63
2021/04/09 04:45:48;;;;;;;7.05;4.45;;;;;;;1.40;74.28;98892.25;1674851;86;21140;-68
2021/04/09 04:48:17;;;;;;;3.92;3.15;;;;;;;1.45;73.82;98893.34;1674900;84;21231;-65
2021/04/09 04:50:45;;;;;;;7.17;3.02;;;;;;;1.47;73.17;98896.69;1675008;84;21195;-64
2021/04/09 04:53:13;;;;;;;5.75;3.52;;;;;;;1.49;73.39;98889.77;1674941;86;21247;-66
2021/04/09 04:55:42;;;;;;;5.42;4.00;;;;;;;1.50;73.00;98893.99;1674686;84;21171;-64
2021/04/09 04:58:10;;;;;;;58.95;26.23;;;;;;;1.47;74.91;98896.69;1675182;84;21179;-66
2021/04/09 05:00:38;;;;;;;46.95;23.07;;;;;;;1.49;74.01;98905.56;1675109;84;21537;-64
2021/04/09 05:03:06;;;;;;;42.23;21.95;;;;;;;1.53;73.83;98905.82;1674971;86;21179;-67
2021/04/09 05:05:34;;;;;;;33.73;20.72;;;;;;;1.55;73.26;98907.89;1675144;86;21170;-64
2021/04/09 05:08:24;;;;;;;10.63;7.37;;;;;;;1.58;73.12;98897.06;1674859;86;21167;-65
2021/04/09 05:10:52;;;;;;;4.42;3.08;;;;;;;1.59;74.05;98903.86;1676083;85;21601;-65
2021/04/09 05:13:20;;;;;;;5.75;3.25;;;;;;;1.54;74.84;98910.05;1676104;85;21179;-64
2021/04/09 05:15:48;;;;;;;3.85;2.92;;;;;;;1.53;74.87;98909.22;1675567;85;21202;-65
2021/04/09 05:18:17;;;;;;;5.28;2.77;;;;;;;1.51;75.58;98916.59;1675894;85;21161;-64
2021/04/09 05:20:45;;;;;;;13.58;4.05;;;;;;;1.51;75.76;98914.03;1676316;85;21266;-65
2021/04/09 05:23:13;;;;;;;5.87;3.72;;;;;;;1.56;75.46;98917.20;1676188;85;21177;-64
2021/04/09 05:25:41;;;;;;;5.55;2.72;;;;;;;1.64;75.43;98918.55;1687826;84;21146;-65
2021/04/09 05:28:09;;;;;;;5.72;3.42;;;;;;;1.71;75.10;98925.08;1690758;85;21198;-65
2021/04/09 05:30:38;;;;;;;16.90;3.45;;;;;;;1.76;75.36;98924.89;1690790;84;21197;-63
2021/04/09 05:33:08;;;;;;;9.43;3.80;;;;;;;1.80;75.00;98927.70;1690817;85;21239;-64
2021/04/09 05:35:36;;;;;;;6.87;4.45;;;;;;;1.84;75.31;98929.24;1690877;85;21154;-65
2021/04/09 05:38:04;;;;;;;4.83;4.10;;;;;;;1.87;75.46;98931.66;1690840;85;21166;-65
2021/04/09 05:40:32;;;;;;;13.70;4.30;;;;;;;1.96;74.89;98932.56;1669440;85;21244;-65
2021/04/09 05:43:03;;;;;;;6.75;3.80;;;;;;;2.05;74.52;98936.02;1690942;84;21188;-63
2021/04/09 05:45:31;;;;;;;5.15;3.02;;;;;;;2.16;74.05;98936.83;1690846;84;21220;-63
2021/04/09 05:48:05;;;;;;;5.25;2.67;;;;;;;2.23;73.40;98935.21;1690786;84;21173;-62
2021/04/09 05:54:10;;;;;;;8.15;2.67;;;;;;;2.36;72.74;98941.47;1682705;85;21122;-62
2021/04/09 06:00:40;;;;;;;4.37;3.27;;;;;;;2.68;71.87;98941.31;1682720;85;21563;-63
2021/04/09 06:03:09;;;;;;;3.98;2.35;;;;;;;2.81;70.99;98942.39;1669583;85;21173;-63
2021/04/09 06:05:37;;;;;;;19.50;10.78;;;;;;;2.98;70.88;98944.19;1669591;85;21209;-65
2021/04/09 06:08:08;;;;;;;61.10;30.15;;;;;;;3.15;70.08;98946.77;1669321;84;21205;-65
2021/04/09 06:10:36;;;;;;;40.03;20.15;;;;;;;3.31;69.84;98938.72;1669309;85;21197;-64
2021/04/09 06:13:04;;;;;;;13.30;7.37;;;;;;;3.46;69.35;98933.77;1669373;85;21244;-64
2021/04/09 06:15:33;;;;;;;4.00;2.83;;;;;;;3.56;67.90;98938.81;1669420;86;21197;-65
2021/04/09 06:18:01;;;;;;;2.58;2.37;;;;;;;3.71;68.05;98939.34;1668945;85;21264;-65
2021/04/09 06:20:29;;;;;;;4.08;2.58;;;;;;;3.87;67.47;98936.38;1668980;85;21618;-63
2021/04/09 06:22:58;;;;;;;4.47;2.83;;;;;;;3.85;65.87;98934.36;1669220;85;21253;-65
2021/04/09 06:25:26;;;;;;;6.60;4.08;;;;;;;3.78;65.55;98933.81;1669295;84;21189;-64
2021/04/09 06:27:55;;;;;;;4.45;2.60;;;;;;;3.83;64.66;98936.16;1669277;85;21525;-64
2021/04/09 06:30:24;;;;;;;2.02;1.80;;;;;;;4.07;65.43;98939.23;1668775;86;21231;-64
2021/04/09 06:32:53;;;;;;;3.77;2.27;;;;;;;4.15;64.82;98939.22;1669275;85;21197;-64
2021/04/09 06:35:22;;;;;;;2.85;2.02;;;;;;;4.30;64.71;98940.16;1669385;86;21157;-65
2021/04/09 06:37:50;;;;;;;4.47;2.92;;;;;;;4.45;63.62;98942.37;1669250;86;21594;-64
2021/04/09 06:40:21;;;;;;;3.05;2.33;;;;;;;4.50;62.93;98939.11;1669396;85;21221;-65
2021/04/09 06:42:57;;;;;;;3.47;2.75;;;;;;;4.60;61.60;98938.53;1669289;85;21189;-64
2021/04/09 06:45:26;;;;;;;8.83;3.25;;;;;;;4.77;61.94;98938.92;1669237;85;21220;-65
2021/04/09 06:47:55;;;;;;;4.83;2.95;;;;;;;4.73;60.77;98937.42;1669516;85;21193;-64
2021/04/09 06:50:24;;;;;;;4.00;2.33;;;;;;;4.90;60.34;98940.38;1669300;85;21634;-64
2021/04/09 06:52:57;;;;;;;2.52;2.15;;;;;;;5.07;59.63;98932.09;1669359;86;21177;-64
2021/04/09 06:55:25;;;;;;;2.85;2.08;;;;;;;5.13;59.51;98934.80;1669356;85;21196;-64
2021/04/09 06:57:54;;;;;;;6.65;2.80;;;;;;;5.10;59.23;98934.94;1669315;85;21185;-64
2021/04/09 07:00:44;;;;;;;3.72;2.47;;;;;;;5.05;58.65;98946.81;1669482;85;21248;-64
2021/04/09 07:03:13;;;;;;;5.62;3.17;;;;;;;5.15;59.48;98943.25;1616353;87;21170;-64
2021/04/09 07:05:42;;;;;;;3.92;2.25;;;;;;;5.26;60.02;98946.05;1643882;86;21163;-64
2021/04/09 07:08:10;;;;;;;3.85;2.60;;;;;;;5.47;60.31;98948.73;1632735;86;21168;-64
2021/04/09 07:10:38;;;;;;;5.05;2.67;;;;;;;5.59;59.52;98952.35;1627017;87;21179;-64
2021/04/09 07:13:09;;;;;;;4.22;2.45;;;;;;;5.69;59.34;98953.47;1602585;88;21604;-67
2021/04/09 07:15:45;;;;;;;4.22;2.77;;;;;;;5.67;58.67;98944.56;1616155;87;21180;-64
2021/04/09 07:18:16;;;;;;;4.65;2.83;;;;;;;5.38;59.03;98945.83;1602480;88;21702;-64
2021/04/09 07:20:45;;;;;;;7.42;5.10;;;;;;;5.37;58.68;98944.98;1616200;87;21188;-63
2021/04/09 07:23:13;;;;;;;3.83;2.85;;;;;;;5.11;58.81;98943.05;1602331;88;21603;-64
2021/04/09 07:25:48;;;;;;;3.22;2.27;;;;;;;5.14;57.34;98945.45;1616189;87;21191;-64
2021/04/09 07:28:23;;;;;;;3.10;1.98;;;;;;;5.30;57.13;98944.97;1614537;87;21244;-64
2021/04/09 07:31:13;;;;;;;5.33;3.22;;;;;;;5.49;57.40;98943.47;1626121;86;21210;-64
2021/04/09 07:33:54;;;;;;;3.92;2.65;;;;;;;5.61;57.26;98948.76;1640263;86;21175;-64
2021/04/09 07:36:22;;;;;;;2.60;2.25;;;;;;;5.94;57.02;98935.70;1692260;82;21140;-63
2021/04/09 07:38:53;;;;;;;3.08;2.20;;;;;;;6.09;56.04;98939.95;1690976;83;21218;-64
2021/04/09 07:41:21;;;;;;;3.85;2.70;;;;;;;6.04;55.17;98942.42;1691024;83;21183;-65
2021/04/09 07:43:49;;;;;;;5.40;2.60;;;;;;;6.18;54.85;98942.00;1690819;82;21176;-65
2021/04/09 07:46:28;;;;;;;4.45;2.87;;;;;;;6.35;54.94;98934.97;1691033;83;21191;-62
2021/04/09 07:49:05;;;;;;;4.45;2.67;;;;;;;6.51;54.48;98942.16;1690923;82;21203;-66
2021/04/09 07:51:33;;;;;;;3.83;2.52;;;;;;;6.72;53.45;98942.14;1690746;83;21191;-64
2021/04/09 07:54:12;;;;;;;3.25;2.52;;;;;;;6.55;52.07;98937.17;1690767;83;21240;-65
2021/04/09 07:56:43;;;;;;;4.25;2.60;;;;;;;6.62;53.04;98934.13;1691009;83;21179;-64
2021/04/09 07:59:12;;;;;;;3.30;2.80;;;;;;;6.88;52.84;98926.53;1690963;83;21203;-66
2021/04/09 08:01:49;;;;;;;3.55;2.15;;;;;;;7.04;51.71;98934.98;1690847;83;21166;-66
2021/04/09 08:04:19;;;;;;;6.80;2.50;;;;;;;7.28;50.71;98936.43;1690962;83;21203;-66
2021/04/09 08:06:47;;;;;;;3.05;1.77;;;;;;;7.43;50.53;98938.86;1691015;82;21167;-66
2021/04/09 08:09:15;;;;;;;3.08;2.00;;;;;;;7.31;50.70;98940.97;1690718;83;21159;-66
2021/04/09 08:11:43;;;;;;;5.78;2.27;;;;;;;7.45;51.34;98937.02;1690888;83;21187;-66
2021/04/09 08:14:23;;;;;;;3.52;1.82;;;;;;;7.28;49.23;98941.14;1690869;83;21152;-65
2021/04/09 08:16:54;;;;;;;6.17;2.30;;;;;;;7.59;49.43;98935.64;1690737;83;21163;-64
2021/04/09 08:19:25;;;;;;;3.37;2.22;;;;;;;7.69;48.37;98929.42;1690963;83;21203;-65
2021/04/09 08:22:00;;;;;;;2.58;1.82;;;;;;;7.75;46.86;98927.70;1691159;83;21184;-64
2021/04/09 08:24:36;;;;;;;3.67;2.10;;;;;;;7.80;45.65;98924.36;1690909;83;21212;-64
2021/04/09 08:27:02;;;;;;;1.05;0.95;;;;;;;7.93;46.81;98931.67;1690699;82;21155;-64
2021/04/09 08:29:31;;;;;;;1.98;1.72;;;;;;;8.01;45.52;98929.41;1690881;83;21167;-63
2021/04/09 08:32:03;;;;;;;2.98;1.98;;;;;;;7.97;44.05;98933.13;1683519;83;21172;-64
2021/04/09 08:34:33;;;;;;;1.95;1.37;;;;;;;7.73;45.66;98931.34;1658155;86;21181;-64
2021/04/09 08:37:03;;;;;;;2.10;1.90;;;;;;;7.97;44.08;98931.84;1657985;85;21191;-65
2021/04/09 08:39:36;;;;;;;1.90;1.40;;;;;;;8.19;44.15;98930.38;1656704;86;21630;-64
2021/04/09 08:42:26;;;;;;;2.60;1.87;;;;;;;8.30;43.47;98924.03;1657992;85;21166;-63
2021/04/09 08:44:58;;;;;;;3.15;1.67;;;;;;;8.47;43.67;98925.00;1685674;85;21160;-63
2021/04/09 08:47:29;;;;;;;2.27;1.55;;;;;;;8.63;43.75;98923.47;1693910;84;21190;-64
2021/04/09 08:50:00;;;;;;;2.90;2.00;;;;;;;8.85;44.22;98928.33;1693791;84;21224;-64
2021/04/09 08:52:29;;;;;;;3.85;2.62;;;;;;;8.83;41.85;98930.17;1676402;84;21184;-64
2021/04/09 08:54:57;;;;;;;3.52;2.20;;;;;;;8.79;42.74;98922.76;1693788;85;21616;-64
2021/04/09 08:57:36;;;;;;;4.00;2.65;;;;;;;8.96;42.08;98921.91;1693934;84;21144;-63
2021/04/09 09:00:24;;;;;;;3.27;2.10;;;;;;;8.93;41.01;98923.43;1688766;84;21208;-65
2021/04/09 09:02:55;;;;;;;2.85;1.90;;;;;;;9.04;40.45;98916.17;1683972;84;21577;-64
2021/04/09 09:05:27;;;;;;;2.65;2.08;;;;;;;8.95;39.04;98904.70;1685851;84;21557;-63
2021/04/09 09:07:58;;;;;;;2.35;1.42;;;;;;;8.86;39.11;98917.50;1683920;85;21133;-63
2021/04/09 09:10:36;;;;;;;2.52;1.75;;;;;;;9.00;39.26;98918.16;1687661;84;21113;-63
2021/04/09 09:13:15;;;;;;;3.85;2.60;;;;;;;8.70;38.74;98913.87;1693611;84;21157;-63
2021/04/09 09:15:49;;;;;;;1.95;1.50;;;;;;;8.43;40.04;98924.84;1660281;86;21250;-64
2021/04/09 09:18:31;;;;;;;2.22;1.30;;;;;;;8.92;39.07;98912.70;1657315;85;21215;-64
2021/04/09 09:21:18;;;;;;;1.95;1.42;;;;;;;9.24;38.76;98914.75;1640326;86;21176;-64
2021/04/09 09:24:29;;;;;;;2.65;1.52;;;;;;;9.23;38.36;98915.67;1642582;86;21191;-63
2021/04/09 09:27:03;;;;;;;2.30;1.40;;;;;;;9.54;38.53;98918.52;1597896;88;21644;-63
2021/04/09 09:29:31;;;;;;;3.27;2.45;;;;;;;10.20;41.77;98913.59;1632603;88;21193;-64
2021/04/09 09:32:07;;;;;;;3.80;1.87;;;;;;;10.28;36.40;98911.24;1633464;88;21212;-63
2021/04/09 09:34:39;;;;;;;3.33;1.75;;;;;;;9.57;36.97;98914.06;1633238;88;21188;-64
2021/04/09 09:37:29;;;;;;;1.57;0.98;;;;;;;10.70;39.09;98905.81;1633205;88;21153;-63
2021/04/09 09:40:05;;;;;;;2.80;1.90;;;;;;;11.35;35.11;98899.23;1633260;88;21200;-64
2021/04/09 09:45:36;;;;;;;2.90;1.60;;;;;;;12.14;35.05;98896.57;1661225;86;21168;-63
2021/04/09 09:48:19;;;;;;;1.72;1.50;;;;;;;12.98;33.74;98888.80;1660981;86;21183;-68
2021/04/09 09:50:46;;;;;;;3.10;1.47;;;;;;;13.42;30.35;98888.31;1649567;85;21176;-64
2021/04/09 09:53:14;;;;;;;2.25;1.57;;;;;;;14.01;29.37;98882.84;1660530;86;21265;-64
2021/04/09 09:55:47;;;;;;;2.37;1.87;;;;;;;14.52;28.12;98872.43;1660284;86;21188;-65
2021/04/09 09:58:28;;;;;;;1.92;1.60;;;;;;;14.10;28.88;98872.03;1660228;85;21678;-63
2021/04/09 10:01:02;;;;;;;2.90;1.92;;;;;;;14.46;28.53;98870.41;1659672;86;21268;-66
2021/04/09 10:03:41;;;;;;;1.82;1.25;;;;;;;15.13;27.61;98866.08;1666136;85;21199;-65
2021/04/09 10:06:13;;;;;;;1.77;1.42;;;;;;;15.43;27.17;98868.78;1678430;85;21168;-65
2021/04/09 10:08:44;;;;;;;2.83;1.70;;;;;;;15.03;28.37;98860.08;1645246;86;21588;-66
2021/04/09 10:11:18;;;;;;;2.45;1.80;;;;;;;14.19;27.72;98873.31;1682513;84;21192;-66
2021/04/09 10:13:51;;;;;;;2.87;1.75;;;;;;;14.98;26.92;98873.59;1682542;84;21589;-64
2021/04/09 10:16:24;;;;;;;2.00;1.30;;;;;;;14.43;27.97;98870.70;1646813;86;21151;-65
2021/04/09 10:18:58;;;;;;;2.65;1.50;;;;;;;15.00;28.25;98869.53;1682506;84;21165;-65
2021/04/09 10:21:32;;;;;;;4.40;1.62;;;;;;;15.54;26.28;98862.85;1646969;86;21175;-66
2021/04/09 10:24:22;;;;;;;2.27;1.40;;;;;;;16.05;25.12;98863.36;1682709;85;21930;-64
2021/04/09 10:27:02;;;;;;;5.92;2.42;;;;;;;16.51;24.74;98857.34;1646840;86;21183;-66
2021/04/09 10:29:33;;;;;;;2.27;1.30;;;;;;;16.92;24.57;98855.70;1681837;84;21187;-65
2021/04/09 10:32:02;;;;;;;2.92;2.12;;;;;;;17.72;25.29;98847.05;1646636;87;21218;-65
2021/04/09 10:34:33;;;;;;;2.35;1.47;;;;;;;17.90;23.27;98843.73;1682403;85;21612;-65
2021/04/09 10:37:06;;;;;;;3.98;2.25;;;;;;;18.01;22.46;98837.31;1646686;86;21603;-66
2021/04/09 10:39:38;;;;;;;1.67;1.55;;;;;;;16.82;24.06;98834.84;1682643;84;21200;-65
2021/04/09 10:42:09;;;;;;;2.55;2.05;;;;;;;17.94;22.60;98824.50;1647147;86;21151;-66
2021/04/09 10:44:37;;;;;;;4.90;3.67;;;;;;;18.10;22.40;98828.89;1682741;84;21254;-65
2021/04/09 10:47:07;;;;;;;1.75;1.60;;;;;;;17.99;22.77;98834.02;1682777;85;21646;-68
2021/04/09 10:49:39;;;;;;;6.42;4.70;;;;;;;16.84;21.90;98836.01;1644784;87;21184;-70
2021/04/09 10:52:17;;;;;;;33.70;20.70;;;;;;;17.42;21.63;98822.27;1628478;88;21177;-69
2021/04/09 10:54:47;;;;;;;3.87;3.15;;;;;;;18.14;21.87;98828.39;1628496;88;21149;-67
2021/04/09 10:57:20;;;;;;;9.63;5.92;;;;;;;17.27;22.37;98824.41;1628623;88;21279;-67
2021/04/09 10:59:50;;;;;;;9.10;6.03;;;;;;;18.05;22.25;98825.97;1628591;88;21180;-68
2021/04/09 11:02:22;;;;;;;5.17;2.05;;;;;;;18.63;21.51;98816.39;1628555;87;21194;-68
2021/04/09 11:04:58;;;;;;;3.33;1.98;;;;;;;19.74;20.55;98814.39;1628490;87;21176;-65
2021/04/09 11:07:50;;;;;;;2.05;1.52;;;;;;;18.84;20.51;98810.00;1628446;87;21181;-65
2021/04/09 11:10:35;;;;;;;2.15;1.62;;;;;;;17.99;23.25;98807.74;1623858;88;21146;-64
2021/04/09 11:13:05;;;;;;;2.40;1.80;;;;;;;17.70;22.24;98801.76;1628916;88;21161;-66
2021/04/09 11:15:54;;;;;;;4.17;1.47;;;;;;;16.75;22.55;98806.80;1628684;86;21149;-66
2021/04/09 11:18:22;;;;;;;2.85;2.22;;;;;;;17.45;21.65;98804.05;1643884;85;21254;-67
2021/04/09 11:20:50;;;;;;;2.27;1.50;;;;;;;17.84;21.93;98801.06;1668283;85;21665;-66
2021/04/09 11:23:19;;;;;;;2.65;2.08;;;;;;;18.95;20.15;98793.80;1672740;85;21206;-66
2021/04/09 11:25:50;;;;;;;2.20;2.00;;;;;;;19.11;20.12;98788.41;1659911;84;21245;-66
2021/04/09 11:28:28;;;;;;;1.90;1.40;;;;;;;18.53;20.48;98786.83;1669613;85;21161;-67
2021/04/09 11:31:02;;;;;;;1.90;1.60;;;;;;;19.07;19.92;98777.09;1670810;85;21140;-67
2021/04/09 11:33:40;;;;;;;2.33;1.72;;;;;;;19.82;19.56;98781.36;1681035;85;21571;-67
2021/04/09 11:36:43;;;;;;;3.00;2.30;;;;;;;18.90;21.25;98767.20;1674108;85;21637;-66
2021/04/09 11:39:15;;;;;;;2.15;1.52;;;;;;;17.76;21.12;98770.04;1613377;88;21184;-67
2021/04/09 11:45:16;;;;;;;1.67;1.42;;;;;;;17.31;22.85;98774.53;1690869;84;21228;-66
2021/04/09 11:47:45;;;;;;;2.90;2.00;;;;;;;18.29;21.63;98768.84;1694666;83;21170;-66
2021/04/09 11:50:27;;;;;;;2.70;2.17;;;;;;;18.81;21.02;98762.98;1692821;83;21239;-67
2021/04/09 11:53:03;;;;;;;2.42;1.70;;;;;;;16.97;22.13;98765.50;1692004;83;21179;-66
2021/04/09 11:55:37;;;;;;;2.20;1.70;;;;;;;18.33;20.99;98759.63;1665250;85;21132;-66
2021/04/09 11:58:21;;;;;;;2.85;2.00;;;;;;;18.60;20.46;98746.51;1690626;84;21204;-66
2021/04/09 12:01:21;;;;;;;2.45;1.77;;;;;;;18.29;20.69;98758.33;1657033;86;21618;-66
2021/04/09 12:03:49;;;;;;;1.60;1.47;;;;;;;17.79;21.35;98761.81;1682711;84;21588;-66
2021/04/09 12:06:19;;;;;;;2.22;1.47;;;;;;;18.75;20.39;98742.65;1683052;84;21215;-67
2021/04/09 12:08:49;;;;;;;2.70;2.10;;;;;;;19.00;20.35;98738.81;1682732;84;21179;-66
2021/04/09 12:11:22;;;;;;;4.05;2.00;;;;;;;17.67;21.17;98743.45;1696343;84;21214;-66
2021/04/09 12:13:50;;;;;;;3.15;1.70;;;;;;;17.71;21.33;98743.45;1700962;84;21195;-66
2021/04/09 12:16:19;;;;;;;1.90;1.40;;;;;;;19.14;20.95;98739.38;1697389;84;21170;-67
2021/04/09 12:18:48;;;;;;;2.58;1.60;;;;;;;20.03;20.42;98737.14;1687675;85;21171;-68
2021/04/09 12:21:37;;;;;;;2.83;2.25;;;;;;;19.64;19.53;98738.75;1687642;84;21241;-67
2021/04/09 12:24:07;;;;;;;3.65;1.50;;;;;;;19.62;20.32;98736.77;1687429;83;21183;-67